createdAt,value
2023-05-11T00:02:02.141Z,9.70
2023-05-11T00:04:30.145Z,9.73
2023-05-11T00:06:59.500Z,9.70
2023-05-11T00:09:27.505Z,9.46
2023-05-11T00:11:55.674Z,9.63
2023-05-11T00:14:23.757Z,9.60
2023-05-11T00:16:51.718Z,9.59
2023-05-11T00:19:19.955Z,9.42
2023-05-11T00:21:48.061Z,9.45
2023-05-11T00:24:17.411Z,9.43
2023-05-11T00:26:45.500Z,9.20
2023-05-11T00:29:13.491Z,9.45
2023-05-11T00:31:41.475Z,9.44
2023-05-11T00:34:09.454Z,9.39
2023-05-11T00:36:41.312Z,9.05
2023-05-11T00:39:10.028Z,9.33
2023-05-11T00:41:39.625Z,9.30
2023-05-11T00:44:07.620Z,9.28
2023-05-11T00:46:35.668Z,9.26
2023-05-11T00:49:04.115Z,8.76
2023-05-11T00:51:33.205Z,9.11
2023-05-11T00:54:02.596Z,9.12
2023-05-11T00:56:30.576Z,9.21
2023-05-11T00:59:00.204Z,8.91
2023-05-11T01:01:28.678Z,9.07
2023-05-11T01:03:56.644Z,9.17
2023-05-11T01:06:31.951Z,9.18
2023-05-11T01:09:07.046Z,9.05
2023-05-11T01:11:42.579Z,9.08
2023-05-11T01:14:17.212Z,9.14
2023-05-11T01:16:49.899Z,8.90
2023-05-11T01:19:32.285Z,9.06
2023-05-11T01:22:01.326Z,9.01
2023-05-11T01:24:39.472Z,8.96
2023-05-11T01:27:37.095Z,9.08
2023-05-11T01:30:37.211Z,9.04
2023-05-11T01:33:11.121Z,8.93
2023-05-11T01:35:44.358Z,9.04
2023-05-11T01:38:15.310Z,8.92
2023-05-11T01:40:44.840Z,9.03
2023-05-11T01:43:18.902Z,9.04
2023-05-11T01:45:51.492Z,8.90
2023-05-11T01:48:24.649Z,8.92
2023-05-11T01:50:54.090Z,8.12
2023-05-11T01:53:24.065Z,9.00
2023-05-11T01:55:53.818Z,7.94
2023-05-11T01:58:24.895Z,8.88
2023-05-11T02:00:55.800Z,8.92
2023-05-11T02:03:24.656Z,8.80
2023-05-11T02:05:54.549Z,8.93
2023-05-11T02:08:23.592Z,8.93
2023-05-11T02:10:52.043Z,8.93
2023-05-11T02:13:21.001Z,8.11
2023-05-11T02:15:51.827Z,8.90
2023-05-11T02:18:22.310Z,8.82
2023-05-11T02:20:51.852Z,8.68
2023-05-11T02:23:22.069Z,8.72
2023-05-11T02:25:51.044Z,8.82
2023-05-11T02:28:19.516Z,8.81
2023-05-11T02:30:49.860Z,8.77
2023-05-11T02:33:26.886Z,8.71
2023-05-11T02:35:57.415Z,8.78
2023-05-11T02:38:31.740Z,8.73
2023-05-11T02:41:03.573Z,8.74
2023-05-11T02:43:36.662Z,8.75
2023-05-11T02:46:08.099Z,8.40
2023-05-11T02:48:40.178Z,8.72
2023-05-11T02:51:11.367Z,8.68
2023-05-11T02:53:42.619Z,8.68
2023-05-11T02:56:10.854Z,8.56
2023-05-11T02:58:39.288Z,8.61
2023-05-11T03:01:08.770Z,7.74
2023-05-11T03:03:38.384Z,8.50
2023-05-11T03:06:06.598Z,8.55
2023-05-11T03:08:34.981Z,8.44
2023-05-11T03:11:04.166Z,8.30
2023-05-11T03:13:33.727Z,8.20
2023-05-11T03:16:03.409Z,8.48
2023-05-11T03:18:32.414Z,8.47
2023-05-11T03:21:03.451Z,8.18
2023-05-11T03:23:31.773Z,8.29
2023-05-11T03:26:00.882Z,8.16
2023-05-11T03:28:31.085Z,8.47
2023-05-11T03:30:59.158Z,8.45
2023-05-11T03:33:27.556Z,8.42
2023-05-11T03:35:56.396Z,8.43
2023-05-11T03:38:29.337Z,8.41
2023-05-11T03:40:59.094Z,8.04
2023-05-11T03:43:28.352Z,8.29
2023-05-11T03:45:58.809Z,8.12
2023-05-11T03:48:27.204Z,8.42
2023-05-11T03:50:56.736Z,8.35
2023-05-11T03:53:26.869Z,8.35
2023-05-11T03:55:55.016Z,8.42
2023-05-11T03:58:23.798Z,8.43
2023-05-11T04:00:52.139Z,8.18
2023-05-11T04:03:20.464Z,8.33
2023-05-11T04:05:48.594Z,8.10
2023-05-11T04:08:16.778Z,8.40
2023-05-11T04:10:46.160Z,8.36
2023-05-11T04:13:14.110Z,8.41
2023-05-11T04:15:42.218Z,8.38
2023-05-11T04:18:11.299Z,8.23
2023-05-11T04:20:39.293Z,8.40
2023-05-11T04:23:09.051Z,8.40
2023-05-11T04:25:38.327Z,8.39
2023-05-11T04:28:07.668Z,8.41
2023-05-11T04:30:35.877Z,8.40
2023-05-11T04:33:05.319Z,8.40
2023-05-11T04:35:33.393Z,8.40
2023-05-11T04:38:01.438Z,8.40
2023-05-11T04:40:32.814Z,8.44
2023-05-11T04:43:08.697Z,8.21
2023-05-11T04:45:44.356Z,8.32
2023-05-11T04:48:12.538Z,8.41
2023-05-11T04:50:40.780Z,8.41
2023-05-11T04:53:08.789Z,8.40
2023-05-11T04:55:36.789Z,8.40
2023-05-11T04:58:04.762Z,7.94
2023-05-11T05:00:34.097Z,8.10
2023-05-11T05:03:02.235Z,8.45
2023-05-11T05:05:30.238Z,8.38
2023-05-11T05:07:58.252Z,8.44
2023-05-11T05:10:26.376Z,8.38
2023-05-11T05:12:54.473Z,8.26
2023-05-11T05:15:22.502Z,8.14
2023-05-11T05:17:51.967Z,8.43
2023-05-11T05:20:20.424Z,8.49
2023-05-11T05:22:48.614Z,8.27
2023-05-11T05:25:17.030Z,8.47
2023-05-11T05:27:45.121Z,8.49
2023-05-11T05:30:16.774Z,8.45
2023-05-11T05:32:44.886Z,8.58
2023-05-11T05:35:14.411Z,8.62
2023-05-11T05:37:42.877Z,8.63
2023-05-11T05:40:11.369Z,8.64
2023-05-11T05:42:39.366Z,8.63
2023-05-11T05:45:08.485Z,8.53
2023-05-11T05:47:36.555Z,8.47
2023-05-11T05:50:04.759Z,8.59
2023-05-11T05:52:34.212Z,8.58
2023-05-11T05:55:02.243Z,8.67
2023-05-11T05:57:31.428Z,8.72
2023-05-11T05:59:59.433Z,8.72
2023-05-11T06:02:27.605Z,8.64
2023-05-11T06:04:55.702Z,8.70
2023-05-11T06:07:23.603Z,8.72
2023-05-11T06:09:52.938Z,8.71
2023-05-11T06:12:20.938Z,8.43
2023-05-11T06:14:49.067Z,8.59
2023-05-11T06:17:17.068Z,8.63
2023-05-11T06:19:45.032Z,8.61
2023-05-11T06:22:13.230Z,8.22
2023-05-11T06:24:41.325Z,8.63
2023-05-11T06:27:10.772Z,8.64
2023-05-11T06:29:39.630Z,8.73
2023-05-11T06:32:07.741Z,8.52
2023-05-11T06:34:35.843Z,8.65
2023-05-11T06:37:04.055Z,8.81
2023-05-11T06:39:32.023Z,8.85
2023-05-11T06:42:04.248Z,8.75
2023-05-11T06:44:35.370Z,8.73
2023-05-11T06:47:03.518Z,8.95
2023-05-11T06:49:31.601Z,8.99
2023-05-11T06:51:59.851Z,8.67
2023-05-11T06:54:27.850Z,9.00
2023-05-11T06:56:55.845Z,8.94
2023-05-11T06:59:23.877Z,8.71
2023-05-11T07:01:53.324Z,9.12
2023-05-11T07:04:21.378Z,9.20
2023-05-11T07:06:50.375Z,9.22
2023-05-11T07:09:18.661Z,9.25
2023-05-11T07:11:46.770Z,9.36
2023-05-11T07:14:14.723Z,9.42
2023-05-11T07:16:42.922Z,9.54
2023-05-11T07:19:12.378Z,9.48
2023-05-11T07:21:40.622Z,9.65
2023-05-11T07:24:08.780Z,9.46
2023-05-11T07:26:36.857Z,9.93
2023-05-11T07:29:04.875Z,10.04
2023-05-11T07:31:33.703Z,10.26
2023-05-11T07:34:01.815Z,10.17
2023-05-11T07:36:31.728Z,10.10
2023-05-11T07:39:01.407Z,10.04
2023-05-11T07:41:30.099Z,10.25
2023-05-11T07:43:58.139Z,10.20
2023-05-11T07:46:26.093Z,10.35
2023-05-11T07:49:03.380Z,10.44
2023-05-11T07:51:37.222Z,10.69
2023-05-11T07:54:05.806Z,10.86
2023-05-11T07:56:33.901Z,10.83
2023-05-11T07:59:01.956Z,11.17
2023-05-11T08:01:30.010Z,10.96
2023-05-11T08:03:57.929Z,11.33
2023-05-11T08:06:26.478Z,11.24
2023-05-11T08:08:56.332Z,11.45
2023-05-11T08:11:24.446Z,11.25
2023-05-11T08:13:52.920Z,11.42
2023-05-11T08:16:21.290Z,11.80
2023-05-11T08:18:50.088Z,11.90
2023-05-11T08:21:18.798Z,11.50
2023-05-11T08:23:46.779Z,11.62
2023-05-11T08:26:16.783Z,11.85
2023-05-11T08:28:44.779Z,11.86
2023-05-11T08:31:14.514Z,11.86
2023-05-11T08:33:42.659Z,11.91
2023-05-11T08:36:13.268Z,11.92
2023-05-11T08:38:41.716Z,12.21
2023-05-11T08:41:12.647Z,12.07
2023-05-11T08:43:42.429Z,12.05
2023-05-11T08:46:12.781Z,11.69
2023-05-11T08:48:42.598Z,12.20
2023-05-11T08:51:10.920Z,12.07
2023-05-11T08:53:38.926Z,12.43
2023-05-11T08:56:09.638Z,12.42
2023-05-11T08:58:38.573Z,12.29
2023-05-11T09:01:09.129Z,11.89
2023-05-11T09:03:38.200Z,11.54
2023-05-11T09:06:08.301Z,11.54
2023-05-11T09:08:40.632Z,11.59
2023-05-11T09:11:08.857Z,11.61
2023-05-11T09:13:36.986Z,11.61
2023-05-11T09:16:07.307Z,12.17
2023-05-11T09:18:49.185Z,12.26
2023-05-11T09:21:17.945Z,12.29
2023-05-11T09:23:46.437Z,12.42
2023-05-11T09:26:17.944Z,11.93
2023-05-11T09:29:02.452Z,11.82
2023-05-11T09:31:42.711Z,12.13
2023-05-11T09:34:17.363Z,11.96
2023-05-11T09:36:46.972Z,12.17
2023-05-11T09:39:16.594Z,12.29
2023-05-11T09:41:45.562Z,11.96
2023-05-11T09:44:15.220Z,12.13
2023-05-11T09:46:45.945Z,11.91
2023-05-11T09:49:17.932Z,11.79
2023-05-11T09:51:46.194Z,12.29
2023-05-11T09:54:18.921Z,12.41
2023-05-11T09:56:48.880Z,12.96
2023-05-11T09:59:18.404Z,12.98
2023-05-11T10:01:46.356Z,12.37
2023-05-11T10:06:50.366Z,12.83
2023-05-11T10:09:24.361Z,13.46
2023-05-11T10:11:54.215Z,13.22
2023-05-11T10:14:23.795Z,12.61
2023-05-11T10:16:53.374Z,12.47
2023-05-11T10:19:26.051Z,12.48
2023-05-11T10:21:54.413Z,12.34
2023-05-11T10:24:23.020Z,12.43
2023-05-11T10:26:51.958Z,12.45
2023-05-11T10:29:21.586Z,12.28
2023-05-11T10:31:51.346Z,12.55
2023-05-11T10:34:23.284Z,12.85
2023-05-11T10:36:54.341Z,13.33
2023-05-11T10:39:22.989Z,13.54
2023-05-11T10:42:03.147Z,13.54
2023-05-11T10:45:22.835Z,12.99
2023-05-11T10:48:27.989Z,13.19
2023-05-11T10:51:16.478Z,13.55
2023-05-11T10:54:15.705Z,13.72
2023-05-11T10:57:00.339Z,13.22
2023-05-11T10:59:53.192Z,13.21
2023-05-11T11:02:21.430Z,13.09
2023-05-11T11:04:50.737Z,13.18
2023-05-11T11:07:19.944Z,13.13
2023-05-11T11:09:57.495Z,13.39
2023-05-11T11:12:27.083Z,13.32
2023-05-11T11:14:57.781Z,13.39
2023-05-11T11:17:29.116Z,13.69
2023-05-11T11:19:57.550Z,13.67
2023-05-11T11:22:47.281Z,13.20
2023-05-11T11:25:38.040Z,13.14
2023-05-11T11:28:06.416Z,13.48
2023-05-11T11:30:34.746Z,13.51
2023-05-11T11:33:34.803Z,14.37
2023-05-11T11:36:03.162Z,14.09
2023-05-11T11:38:32.595Z,14.04
2023-05-11T11:41:02.705Z,14.04
2023-05-11T11:43:45.890Z,14.34
2023-05-11T11:46:28.077Z,14.23
2023-05-11T11:49:11.298Z,13.94
2023-05-11T11:51:40.593Z,13.27
2023-05-11T11:54:09.138Z,13.45
2023-05-11T11:56:43.868Z,13.51
2023-05-11T11:59:14.144Z,13.63
2023-05-11T12:01:44.026Z,13.18
2023-05-11T12:05:01.019Z,13.45
2023-05-11T12:07:35.231Z,13.63
2023-05-11T12:10:04.690Z,13.48
2023-05-11T12:12:34.851Z,13.38
2023-05-11T12:15:04.088Z,13.27
2023-05-11T12:17:34.570Z,13.25
2023-05-11T12:20:17.007Z,13.35
2023-05-11T12:22:48.097Z,12.80
2023-05-11T12:25:18.099Z,12.81
2023-05-11T12:27:58.140Z,13.03
2023-05-11T12:30:28.435Z,13.01
2023-05-11T12:32:59.482Z,12.92
2023-05-11T12:35:29.007Z,13.44
2023-05-11T12:37:59.009Z,13.51
2023-05-11T12:40:27.611Z,13.35
2023-05-11T12:42:58.814Z,13.40
2023-05-11T12:45:29.292Z,13.73
2023-05-11T12:47:58.884Z,13.21
2023-05-11T12:50:26.942Z,13.26
2023-05-11T12:52:55.117Z,13.38
2023-05-11T12:55:29.453Z,13.17
2023-05-11T12:58:11.992Z,12.74
2023-05-11T13:00:52.121Z,12.81
2023-05-11T13:03:23.071Z,13.08
2023-05-11T13:05:51.641Z,13.37
2023-05-11T13:08:21.050Z,13.36
2023-05-11T13:10:49.173Z,13.42
2023-05-11T13:13:33.367Z,13.34
2023-05-11T13:16:01.430Z,13.00
2023-05-11T13:18:29.627Z,13.00
2023-05-11T13:21:08.755Z,13.12
2023-05-11T13:23:37.200Z,13.13
2023-05-11T13:26:07.820Z,13.09
2023-05-11T13:28:37.946Z,12.79
2023-05-11T13:31:06.070Z,13.33
2023-05-11T13:33:34.746Z,13.29
2023-05-11T13:36:03.591Z,13.32
2023-05-11T13:38:32.489Z,13.36
2023-05-11T13:41:00.536Z,13.15
2023-05-11T13:43:28.617Z,13.18
2023-05-11T13:45:58.050Z,13.20
2023-05-11T13:48:26.161Z,13.39
2023-05-11T13:50:54.165Z,13.43
2023-05-11T13:53:22.359Z,13.34
2023-05-11T13:55:50.505Z,13.03
2023-05-11T13:58:19.250Z,13.14
2023-05-11T14:00:56.599Z,13.13
2023-05-11T14:03:36.392Z,13.23
2023-05-11T14:06:07.640Z,13.03
2023-05-11T14:08:35.634Z,13.07
2023-05-11T14:11:03.730Z,13.18
2023-05-11T14:13:31.814Z,13.15
2023-05-11T14:16:00.526Z,13.20
2023-05-11T14:18:28.989Z,13.19
2023-05-11T14:21:00.757Z,13.15
2023-05-11T14:23:29.340Z,13.01
2023-05-11T14:25:57.310Z,12.98
2023-05-11T14:28:25.288Z,13.05
2023-05-11T14:30:53.355Z,13.15
2023-05-11T14:33:21.394Z,12.93
2023-05-11T14:35:50.815Z,12.96
2023-05-11T14:38:20.628Z,12.97
2023-05-11T14:40:51.049Z,12.83
2023-05-11T14:43:20.372Z,12.72
2023-05-11T14:45:48.812Z,12.72
2023-05-11T14:48:17.176Z,12.83
2023-05-11T14:50:45.477Z,12.88
2023-05-11T14:53:13.938Z,12.93
2023-05-11T14:55:43.284Z,12.91
2023-05-11T14:58:11.279Z,12.79
2023-05-11T15:00:40.471Z,12.87
2023-05-11T15:03:10.675Z,11.96
2023-05-11T15:05:39.273Z,12.85
2023-05-11T15:08:18.331Z,12.64
2023-05-11T15:10:55.874Z,12.72
2023-05-11T15:13:24.477Z,12.84
2023-05-11T15:15:53.006Z,12.75
2023-05-11T15:18:21.082Z,12.76
2023-05-11T15:20:50.153Z,12.78
2023-05-11T15:23:18.365Z,12.71
2023-05-11T15:25:46.864Z,12.38
2023-05-11T15:28:16.812Z,12.72
2023-05-11T15:30:44.736Z,12.68
2023-05-11T15:33:12.858Z,12.29
2023-05-11T15:35:40.994Z,12.70
2023-05-11T15:38:09.335Z,12.67
2023-05-11T15:40:37.328Z,12.29
2023-05-11T15:43:05.626Z,12.56
2023-05-11T15:45:36.744Z,12.32
2023-05-11T15:48:05.518Z,12.66
2023-05-11T15:50:33.493Z,12.67
2023-05-11T15:53:02.777Z,12.68
2023-05-11T15:55:30.741Z,12.60
2023-05-11T15:57:58.714Z,12.15
2023-05-11T16:00:26.850Z,12.58
2023-05-11T16:02:56.578Z,12.49
2023-05-11T16:05:24.638Z,12.36
2023-05-11T16:07:52.745Z,12.48
2023-05-11T16:10:20.951Z,12.43
2023-05-11T16:12:48.993Z,12.43
2023-05-11T16:15:17.102Z,12.41
2023-05-11T16:17:46.364Z,12.45
2023-05-11T16:20:15.843Z,12.37
2023-05-11T16:22:44.324Z,12.44
2023-05-11T16:25:12.338Z,12.47
2023-05-11T16:27:40.364Z,12.45
2023-05-11T16:30:23.335Z,12.49
2023-05-11T16:32:54.017Z,12.47
2023-05-11T16:35:23.492Z,12.43
2023-05-11T16:37:51.493Z,12.46
2023-05-11T16:40:22.199Z,12.49
2023-05-11T16:42:50.443Z,12.29
2023-05-11T16:45:18.482Z,12.41
2023-05-11T16:47:46.728Z,12.43
2023-05-11T16:50:16.300Z,12.46
2023-05-11T16:52:46.035Z,12.45
2023-05-11T16:55:16.245Z,12.43
2023-05-11T16:57:45.038Z,12.38
2023-05-11T17:00:14.473Z,12.39
2023-05-11T17:02:43.889Z,12.21
2023-05-11T17:05:12.616Z,12.40
2023-05-11T17:07:42.863Z,12.35
2023-05-11T17:10:13.496Z,12.25
2023-05-11T17:12:42.576Z,12.27
2023-05-11T17:15:10.957Z,12.32
2023-05-11T17:17:39.398Z,12.23
2023-05-11T17:20:10.387Z,12.32
2023-05-11T17:22:39.907Z,12.31
2023-05-11T17:25:11.583Z,12.29
2023-05-11T17:27:50.098Z,12.30
2023-05-11T17:30:18.950Z,12.30
2023-05-11T17:32:47.408Z,12.21
2023-05-11T17:35:17.072Z,12.27
2023-05-11T17:37:45.664Z,12.19
2023-05-11T17:40:16.398Z,12.26
2023-05-11T17:42:45.923Z,11.94
2023-05-11T17:45:15.540Z,12.27
2023-05-11T17:47:43.748Z,12.26
2023-05-11T17:50:12.587Z,12.25
2023-05-11T17:52:40.822Z,12.27
2023-05-11T17:55:10.936Z,12.28
2023-05-11T17:57:56.688Z,12.24
2023-05-11T18:00:28.655Z,12.14
2023-05-11T18:02:58.908Z,12.25
2023-05-11T18:05:44.666Z,12.22
2023-05-11T18:08:18.364Z,12.22
2023-05-11T18:10:48.035Z,12.23
2023-05-11T18:13:25.491Z,12.27
2023-05-11T18:15:54.545Z,12.27
2023-05-11T18:21:15.552Z,12.22
2023-05-11T18:23:43.829Z,12.23
2023-05-11T18:26:16.324Z,12.22
2023-05-11T18:28:49.026Z,12.20
2023-05-11T18:31:19.315Z,12.20
2023-05-11T18:33:50.546Z,12.18
2023-05-11T18:36:21.951Z,12.17
2023-05-11T18:38:51.098Z,12.07
2023-05-11T18:41:19.387Z,12.21
2023-05-11T18:43:50.928Z,12.21
2023-05-11T18:46:20.984Z,12.21
2023-05-11T18:48:55.012Z,12.07
2023-05-11T18:51:26.386Z,12.20
2023-05-11T18:54:02.483Z,12.03
2023-05-11T18:56:30.754Z,12.13
2023-05-11T18:59:03.509Z,12.15
2023-05-11T19:01:46.634Z,12.13
2023-05-11T19:04:20.931Z,12.03
2023-05-11T19:06:50.130Z,12.01
2023-05-11T19:09:19.004Z,12.06
2023-05-11T19:11:49.134Z,12.04
2023-05-11T19:14:19.028Z,11.93
2023-05-11T19:16:47.306Z,11.98
2023-05-11T19:19:16.546Z,11.86
2023-05-11T19:21:51.515Z,11.86
2023-05-11T19:24:26.254Z,11.52
2023-05-11T19:27:06.722Z,11.79
2023-05-11T19:29:38.402Z,11.89
2023-05-11T19:34:53.400Z,11.83
2023-05-11T19:37:21.970Z,11.39
2023-05-11T19:39:50.135Z,11.58
2023-05-11T19:42:23.550Z,11.65
2023-05-11T19:45:01.474Z,11.78
2023-05-11T19:47:29.730Z,11.68
2023-05-11T19:49:57.829Z,11.73
2023-05-11T19:52:26.162Z,10.48
2023-05-11T19:54:54.143Z,11.71
2023-05-11T19:57:22.451Z,11.69
2023-05-11T19:59:50.591Z,11.68
2023-05-11T20:02:20.130Z,11.65
2023-05-11T20:04:48.304Z,11.50
2023-05-11T20:07:16.347Z,11.63
2023-05-11T20:09:44.394Z,11.33
2023-05-11T20:12:12.364Z,11.55
2023-05-11T20:14:41.007Z,11.60
2023-05-11T20:17:09.508Z,11.40
2023-05-11T20:19:38.914Z,11.50
2023-05-11T20:22:07.235Z,11.56
2023-05-11T20:24:35.273Z,11.50
2023-05-11T20:27:09.152Z,11.45
2023-05-11T20:29:38.977Z,11.42
2023-05-11T20:32:08.039Z,11.50
2023-05-11T20:34:36.148Z,11.36
2023-05-11T20:37:05.848Z,11.50
2023-05-11T20:39:34.227Z,11.49
2023-05-11T20:42:04.464Z,11.43
2023-05-11T20:44:32.506Z,11.46
2023-05-11T20:47:00.455Z,11.45
2023-05-11T20:49:38.312Z,11.41
2023-05-11T20:52:11.231Z,11.38
2023-05-11T20:54:39.409Z,11.30
2023-05-11T20:57:08.299Z,10.98
2023-05-11T21:02:07.707Z,11.20
2023-05-11T21:04:36.199Z,11.27
2023-05-11T21:07:04.184Z,11.22
2023-05-11T21:09:33.538Z,11.17
2023-05-11T21:12:01.573Z,11.13
2023-05-11T21:14:29.624Z,11.12
2023-05-11T21:16:57.565Z,11.00
2023-05-11T21:19:26.157Z,11.01
2023-05-11T21:21:54.200Z,10.97
2023-05-11T21:24:22.349Z,10.94
2023-05-11T21:26:52.079Z,10.81
2023-05-11T21:29:20.037Z,10.84
2023-05-11T21:31:48.020Z,10.82
2023-05-11T21:34:16.955Z,10.77
2023-05-11T21:36:45.795Z,10.75
2023-05-11T21:39:14.202Z,10.44
2023-05-11T21:41:42.499Z,10.56
2023-05-11T21:44:11.835Z,10.63
2023-05-11T21:46:39.877Z,10.60
2023-05-11T21:49:07.851Z,10.57
2023-05-11T21:51:35.891Z,10.54
2023-05-11T21:54:04.022Z,10.54
2023-05-11T21:56:32.048Z,10.52
2023-05-11T21:59:00.064Z,10.50
2023-05-11T22:01:29.624Z,10.46
2023-05-11T22:04:01.191Z,10.40
2023-05-11T22:06:29.280Z,10.40
2023-05-11T22:08:57.192Z,10.43
2023-05-11T22:11:25.183Z,10.41
2023-05-11T22:13:53.393Z,10.39
2023-05-11T22:16:21.395Z,10.38
2023-05-11T22:18:50.989Z,10.37
2023-05-11T22:21:19.076Z,10.34
2023-05-11T22:23:47.048Z,10.19
2023-05-11T22:26:16.580Z,10.10
2023-05-11T22:28:45.404Z,10.23
2023-05-11T22:31:13.328Z,9.89
2023-05-11T22:33:41.365Z,10.21
2023-05-11T22:36:12.487Z,10.19
2023-05-11T22:38:41.174Z,9.87
2023-05-11T22:41:09.318Z,10.09
2023-05-11T22:43:37.284Z,10.03
2023-05-11T22:46:05.904Z,9.89
2023-05-11T22:48:34.076Z,9.97
2023-05-11T22:51:06.325Z,9.91
2023-05-11T22:53:35.770Z,9.89
2023-05-11T22:56:05.106Z,9.83
2023-05-11T22:58:33.136Z,9.87
2023-05-11T23:01:01.427Z,9.88
2023-05-11T23:03:29.431Z,9.85
2023-05-11T23:05:57.702Z,9.82
2023-05-11T23:08:26.675Z,9.80
2023-05-11T23:10:56.471Z,9.75
2023-05-11T23:13:24.629Z,9.74
2023-05-11T23:15:52.831Z,9.71
2023-05-11T23:18:21.146Z,9.66
2023-05-11T23:20:49.892Z,9.71
2023-05-11T23:23:17.913Z,9.53
2023-05-11T23:25:47.428Z,9.51
2023-05-11T23:28:16.852Z,9.62
2023-05-11T23:30:46.100Z,9.61
2023-05-11T23:33:15.234Z,9.57
2023-05-11T23:35:43.232Z,9.51
2023-05-11T23:38:11.256Z,9.55
2023-05-11T23:40:39.224Z,9.51
2023-05-11T23:43:07.144Z,9.53
2023-05-11T23:45:37.281Z,9.45
2023-05-11T23:48:05.789Z,9.52
2023-05-11T23:50:33.868Z,9.49
2023-05-11T23:53:03.573Z,9.43
2023-05-11T23:55:31.705Z,9.42
2023-05-11T23:57:59.861Z,9.40
